sensor_id;sensor_type;location;lat;lon;timestamp;P1;durP1;ratioP1;P2;durP2;ratioP2
69588;SDS011;56792;50.644;17.984;2023-07-28T00:01:06;5.40;;;3.30;;
69588;SDS011;56792;50.644;17.984;2023-07-28T00:03:35;5.80;;;3.20;;
69588;SDS011;56792;50.644;17.984;2023-07-28T00:06:03;6.30;;;2.80;;
69588;SDS011;56792;50.644;17.984;2023-07-28T00:08:32;4.60;;;2.30;;
69588;SDS011;56792;50.644;17.984;2023-07-28T00:11:00;4.50;;;2.70;;
69588;SDS011;56792;50.644;17.984;2023-07-28T00:13:28;6.80;;;2.80;;
69588;SDS011;56792;50.644;17.984;2023-07-28T00:15:57;7.90;;;2.70;;
69588;SDS011;56792;50.644;17.984;2023-07-28T00:18:25;4.40;;;2.30;;
69588;SDS011;56792;50.644;17.984;2023-07-28T00:20:53;4.00;;;2.20;;
69588;SDS011;56792;50.644;17.984;2023-07-28T00:23:22;5.80;;;2.40;;
69588;SDS011;56792;50.644;17.984;2023-07-28T00:25:50;4.70;;;2.40;;
69588;SDS011;56792;50.644;17.984;2023-07-28T00:28:18;6.50;;;3.00;;
69588;SDS011;56792;50.644;17.984;2023-07-28T00:30:50;4.10;;;2.50;;
69588;SDS011;56792;50.644;17.984;2023-07-28T00:33:19;4.90;;;2.80;;
69588;SDS011;56792;50.644;17.984;2023-07-28T00:35:47;5.20;;;2.60;;
69588;SDS011;56792;50.644;17.984;2023-07-28T00:38:16;4.20;;;2.40;;
69588;SDS011;56792;50.644;17.984;2023-07-28T00:40:44;4.90;;;2.90;;
69588;SDS011;56792;50.644;17.984;2023-07-28T00:43:13;5.00;;;2.90;;
69588;SDS011;56792;50.644;17.984;2023-07-28T00:45:41;4.80;;;3.20;;
69588;SDS011;56792;50.644;17.984;2023-07-28T00:48:15;4.30;;;2.50;;
69588;SDS011;56792;50.644;17.984;2023-07-28T00:50:45;4.60;;;2.30;;
69588;SDS011;56792;50.644;17.984;2023-07-28T00:53:15;5.40;;;3.00;;
69588;SDS011;56792;50.644;17.984;2023-07-28T00:55:44;4.80;;;3.00;;
69588;SDS011;56792;50.644;17.984;2023-07-28T00:58:13;4.20;;;2.50;;
69588;SDS011;56792;50.644;17.984;2023-07-28T01:00:41;5.40;;;2.70;;
69588;SDS011;56792;50.644;17.984;2023-07-28T01:03:09;4.30;;;2.40;;
69588;SDS011;56792;50.644;17.984;2023-07-28T01:05:44;6.00;;;2.80;;
69588;SDS011;56792;50.644;17.984;2023-07-28T01:08:26;4.90;;;2.70;;
69588;SDS011;56792;50.644;17.984;2023-07-28T01:10:57;4.20;;;2.60;;
69588;SDS011;56792;50.644;17.984;2023-07-28T01:13:25;5.50;;;2.50;;
69588;SDS011;56792;50.644;17.984;2023-07-28T01:15:54;4.30;;;2.60;;
69588;SDS011;56792;50.644;17.984;2023-07-28T01:18:24;4.90;;;2.60;;
69588;SDS011;56792;50.644;17.984;2023-07-28T01:20:54;6.10;;;2.50;;
69588;SDS011;56792;50.644;17.984;2023-07-28T01:23:36;4.80;;;2.20;;
69588;SDS011;56792;50.644;17.984;2023-07-28T01:26:11;3.90;;;2.40;;
69588;SDS011;56792;50.644;17.984;2023-07-28T01:28:43;5.00;;;2.40;;
69588;SDS011;56792;50.644;17.984;2023-07-28T01:31:12;5.10;;;2.70;;
69588;SDS011;56792;50.644;17.984;2023-07-28T01:33:41;4.50;;;2.20;;
69588;SDS011;56792;50.644;17.984;2023-07-28T01:36:10;4.90;;;2.30;;
69588;SDS011;56792;50.644;17.984;2023-07-28T01:38:38;3.60;;;2.00;;
69588;SDS011;56792;50.644;17.984;2023-07-28T01:41:07;3.90;;;2.50;;
69588;SDS011;56792;50.644;17.984;2023-07-28T01:43:36;3.80;;;2.10;;
69588;SDS011;56792;50.644;17.984;2023-07-28T01:46:04;4.90;;;2.50;;
69588;SDS011;56792;50.644;17.984;2023-07-28T01:48:32;4.50;;;2.30;;
69588;SDS011;56792;50.644;17.984;2023-07-28T01:51:01;4.00;;;2.20;;
69588;SDS011;56792;50.644;17.984;2023-07-28T01:53:29;4.10;;;2.10;;
69588;SDS011;56792;50.644;17.984;2023-07-28T01:55:58;5.40;;;2.30;;
69588;SDS011;56792;50.644;17.984;2023-07-28T01:58:27;4.90;;;2.20;;
69588;SDS011;56792;50.644;17.984;2023-07-28T02:00:56;4.30;;;2.40;;
69588;SDS011;56792;50.644;17.984;2023-07-28T02:03:24;3.80;;;2.00;;
69588;SDS011;56792;50.644;17.984;2023-07-28T02:05:52;4.90;;;2.00;;
69588;SDS011;56792;50.644;17.984;2023-07-28T02:08:21;4.80;;;2.20;;
69588;SDS011;56792;50.644;17.984;2023-07-28T02:10:50;3.80;;;1.80;;
69588;SDS011;56792;50.644;17.984;2023-07-28T02:13:20;4.90;;;2.30;;
69588;SDS011;56792;50.644;17.984;2023-07-28T02:15:48;4.30;;;2.20;;
69588;SDS011;56792;50.644;17.984;2023-07-28T02:18:17;3.60;;;2.20;;
69588;SDS011;56792;50.644;17.984;2023-07-28T02:20:48;5.40;;;2.10;;
69588;SDS011;56792;50.644;17.984;2023-07-28T02:23:17;4.20;;;2.10;;
69588;SDS011;56792;50.644;17.984;2023-07-28T02:25:45;4.90;;;2.20;;
69588;SDS011;56792;50.644;17.984;2023-07-28T02:28:13;4.70;;;2.20;;
69588;SDS011;56792;50.644;17.984;2023-07-28T02:30:42;3.50;;;1.90;;
69588;SDS011;56792;50.644;17.984;2023-07-28T02:33:10;4.00;;;2.30;;
69588;SDS011;56792;50.644;17.984;2023-07-28T02:35:38;4.60;;;2.50;;
69588;SDS011;56792;50.644;17.984;2023-07-28T02:38:07;4.90;;;2.20;;
69588;SDS011;56792;50.644;17.984;2023-07-28T02:40:35;4.30;;;2.30;;
69588;SDS011;56792;50.644;17.984;2023-07-28T02:43:03;5.70;;;2.30;;
69588;SDS011;56792;50.644;17.984;2023-07-28T02:45:32;4.00;;;2.00;;
69588;SDS011;56792;50.644;17.984;2023-07-28T02:48:00;4.30;;;1.90;;
69588;SDS011;56792;50.644;17.984;2023-07-28T02:50:28;6.00;;;2.20;;
69588;SDS011;56792;50.644;17.984;2023-07-28T02:52:57;4.60;;;2.00;;
69588;SDS011;56792;50.644;17.984;2023-07-28T02:55:25;4.20;;;2.40;;
69588;SDS011;56792;50.644;17.984;2023-07-28T02:57:53;4.80;;;2.00;;
69588;SDS011;56792;50.644;17.984;2023-07-28T03:00:22;4.80;;;2.30;;
69588;SDS011;56792;50.644;17.984;2023-07-28T03:02:50;4.10;;;2.10;;
69588;SDS011;56792;50.644;17.984;2023-07-28T03:05:18;3.90;;;2.00;;
69588;SDS011;56792;50.644;17.984;2023-07-28T03:08:04;4.00;;;2.20;;
69588;SDS011;56792;50.644;17.984;2023-07-28T03:10:33;3.80;;;2.30;;
69588;SDS011;56792;50.644;17.984;2023-07-28T03:13:01;8.00;;;2.50;;
69588;SDS011;56792;50.644;17.984;2023-07-28T03:15:29;4.50;;;2.10;;
69588;SDS011;56792;50.644;17.984;2023-07-28T03:17:58;3.90;;;2.00;;
69588;SDS011;56792;50.644;17.984;2023-07-28T03:20:26;4.10;;;2.10;;
69588;SDS011;56792;50.644;17.984;2023-07-28T03:22:55;3.90;;;2.00;;
69588;SDS011;56792;50.644;17.984;2023-07-28T03:25:23;4.10;;;2.20;;
69588;SDS011;56792;50.644;17.984;2023-07-28T03:27:53;4.90;;;2.00;;
69588;SDS011;56792;50.644;17.984;2023-07-28T03:30:21;4.20;;;2.00;;
69588;SDS011;56792;50.644;17.984;2023-07-28T03:32:49;4.60;;;2.00;;
69588;SDS011;56792;50.644;17.984;2023-07-28T03:35:18;3.90;;;2.00;;
69588;SDS011;56792;50.644;17.984;2023-07-28T03:37:51;4.90;;;2.20;;
69588;SDS011;56792;50.644;17.984;2023-07-28T03:40:20;4.80;;;2.40;;
69588;SDS011;56792;50.644;17.984;2023-07-28T03:42:51;4.60;;;2.40;;
69588;SDS011;56792;50.644;17.984;2023-07-28T03:45:20;4.20;;;2.20;;
69588;SDS011;56792;50.644;17.984;2023-07-28T03:47:48;4.90;;;2.00;;
69588;SDS011;56792;50.644;17.984;2023-07-28T03:50:17;4.30;;;2.30;;
69588;SDS011;56792;50.644;17.984;2023-07-28T03:52:45;4.20;;;2.20;;
69588;SDS011;56792;50.644;17.984;2023-07-28T03:55:14;4.40;;;2.30;;
69588;SDS011;56792;50.644;17.984;2023-07-28T03:57:43;4.10;;;2.00;;
69588;SDS011;56792;50.644;17.984;2023-07-28T04:00:13;5.10;;;2.50;;
69588;SDS011;56792;50.644;17.984;2023-07-28T04:02:42;4.10;;;2.10;;
69588;SDS011;56792;50.644;17.984;2023-07-28T04:05:10;3.90;;;2.10;;
69588;SDS011;56792;50.644;17.984;2023-07-28T04:07:38;5.10;;;2.30;;
69588;SDS011;56792;50.644;17.984;2023-07-28T04:10:08;4.50;;;2.00;;
69588;SDS011;56792;50.644;17.984;2023-07-28T04:12:36;4.60;;;2.10;;
69588;SDS011;56792;50.644;17.984;2023-07-28T04:15:07;4.80;;;2.30;;
69588;SDS011;56792;50.644;17.984;2023-07-28T04:17:36;4.30;;;1.90;;
69588;SDS011;56792;50.644;17.984;2023-07-28T04:20:07;4.50;;;2.20;;
69588;SDS011;56792;50.644;17.984;2023-07-28T04:22:36;5.00;;;2.00;;
69588;SDS011;56792;50.644;17.984;2023-07-28T04:25:06;3.60;;;2.10;;
69588;SDS011;56792;50.644;17.984;2023-07-28T04:27:36;4.40;;;2.40;;
69588;SDS011;56792;50.644;17.984;2023-07-28T04:30:06;4.70;;;2.50;;
69588;SDS011;56792;50.644;17.984;2023-07-28T04:32:35;5.20;;;2.10;;
69588;SDS011;56792;50.644;17.984;2023-07-28T04:35:10;4.40;;;2.30;;
69588;SDS011;56792;50.644;17.984;2023-07-28T04:37:50;4.10;;;2.40;;
69588;SDS011;56792;50.644;17.984;2023-07-28T04:40:33;4.10;;;2.20;;
69588;SDS011;56792;50.644;17.984;2023-07-28T04:43:02;5.20;;;2.20;;
69588;SDS011;56792;50.644;17.984;2023-07-28T04:45:30;4.30;;;2.10;;
69588;SDS011;56792;50.644;17.984;2023-07-28T04:47:59;4.70;;;2.30;;
69588;SDS011;56792;50.644;17.984;2023-07-28T04:50:28;6.50;;;2.60;;
69588;SDS011;56792;50.644;17.984;2023-07-28T04:53:20;4.60;;;2.50;;
69588;SDS011;56792;50.644;17.984;2023-07-28T04:56:05;4.30;;;2.30;;
69588;SDS011;56792;50.644;17.984;2023-07-28T04:58:33;4.60;;;2.10;;
69588;SDS011;56792;50.644;17.984;2023-07-28T05:01:02;6.10;;;2.60;;
69588;SDS011;56792;50.644;17.984;2023-07-28T05:03:32;4.80;;;2.20;;
69588;SDS011;56792;50.644;17.984;2023-07-28T05:06:09;3.80;;;2.10;;
69588;SDS011;56792;50.644;17.984;2023-07-28T05:08:38;5.10;;;2.00;;
69588;SDS011;56792;50.644;17.984;2023-07-28T05:11:06;4.00;;;2.00;;
69588;SDS011;56792;50.644;17.984;2023-07-28T05:13:34;3.80;;;2.10;;
69588;SDS011;56792;50.644;17.984;2023-07-28T05:16:03;3.70;;;2.20;;
69588;SDS011;56792;50.644;17.984;2023-07-28T05:18:50;5.10;;;2.30;;
69588;SDS011;56792;50.644;17.984;2023-07-28T05:21:37;4.00;;;2.40;;
69588;SDS011;56792;50.644;17.984;2023-07-28T05:24:06;5.50;;;2.40;;
69588;SDS011;56792;50.644;17.984;2023-07-28T05:26:35;4.10;;;2.10;;
69588;SDS011;56792;50.644;17.984;2023-07-28T05:29:03;4.10;;;2.20;;
69588;SDS011;56792;50.644;17.984;2023-07-28T05:31:32;5.20;;;2.30;;
69588;SDS011;56792;50.644;17.984;2023-07-28T05:34:00;3.90;;;2.10;;
69588;SDS011;56792;50.644;17.984;2023-07-28T05:36:29;3.90;;;2.10;;
69588;SDS011;56792;50.644;17.984;2023-07-28T05:39:00;3.80;;;1.90;;
69588;SDS011;56792;50.644;17.984;2023-07-28T05:41:37;5.00;;;2.40;;
69588;SDS011;56792;50.644;17.984;2023-07-28T05:44:06;4.70;;;2.30;;
69588;SDS011;56792;50.644;17.984;2023-07-28T05:46:34;4.00;;;2.30;;
69588;SDS011;56792;50.644;17.984;2023-07-28T05:49:03;4.70;;;2.10;;
69588;SDS011;56792;50.644;17.984;2023-07-28T05:51:31;5.70;;;2.50;;
69588;SDS011;56792;50.644;17.984;2023-07-28T05:54:00;5.20;;;2.50;;
69588;SDS011;56792;50.644;17.984;2023-07-28T05:56:29;5.60;;;2.60;;
69588;SDS011;56792;50.644;17.984;2023-07-28T05:58:57;3.90;;;2.00;;
69588;SDS011;56792;50.644;17.984;2023-07-28T06:01:26;5.00;;;2.40;;
69588;SDS011;56792;50.644;17.984;2023-07-28T06:04:13;3.80;;;2.30;;
69588;SDS011;56792;50.644;17.984;2023-07-28T06:06:45;4.70;;;2.90;;
69588;SDS011;56792;50.644;17.984;2023-07-28T06:09:15;4.90;;;2.70;;
69588;SDS011;56792;50.644;17.984;2023-07-28T06:11:44;5.00;;;2.20;;
69588;SDS011;56792;50.644;17.984;2023-07-28T06:14:12;4.40;;;2.60;;
69588;SDS011;56792;50.644;17.984;2023-07-28T06:16:41;5.40;;;2.70;;
69588;SDS011;56792;50.644;17.984;2023-07-28T06:19:09;4.70;;;2.60;;
69588;SDS011;56792;50.644;17.984;2023-07-28T06:21:39;7.30;;;2.80;;
69588;SDS011;56792;50.644;17.984;2023-07-28T06:24:07;4.80;;;2.20;;
69588;SDS011;56792;50.644;17.984;2023-07-28T06:26:36;4.50;;;2.20;;
69588;SDS011;56792;50.644;17.984;2023-07-28T06:29:04;5.20;;;2.50;;
69588;SDS011;56792;50.644;17.984;2023-07-28T06:31:32;5.00;;;2.70;;
69588;SDS011;56792;50.644;17.984;2023-07-28T06:34:01;5.30;;;2.70;;
69588;SDS011;56792;50.644;17.984;2023-07-28T06:36:30;4.60;;;2.50;;
69588;SDS011;56792;50.644;17.984;2023-07-28T06:38:58;4.60;;;2.30;;
69588;SDS011;56792;50.644;17.984;2023-07-28T06:41:27;5.70;;;2.80;;
69588;SDS011;56792;50.644;17.984;2023-07-28T06:44:00;4.30;;;2.70;;
69588;SDS011;56792;50.644;17.984;2023-07-28T06:46:30;5.50;;;3.00;;
69588;SDS011;56792;50.644;17.984;2023-07-28T06:48:58;5.00;;;2.80;;
69588;SDS011;56792;50.644;17.984;2023-07-28T06:51:26;5.40;;;3.00;;
69588;SDS011;56792;50.644;17.984;2023-07-28T06:53:55;4.50;;;2.70;;
69588;SDS011;56792;50.644;17.984;2023-07-28T06:56:24;5.50;;;3.00;;
69588;SDS011;56792;50.644;17.984;2023-07-28T06:58:53;5.80;;;3.10;;
69588;SDS011;56792;50.644;17.984;2023-07-28T07:01:21;4.60;;;2.60;;
69588;SDS011;56792;50.644;17.984;2023-07-28T07:03:49;4.60;;;2.80;;
69588;SDS011;56792;50.644;17.984;2023-07-28T07:06:19;5.80;;;2.90;;
69588;SDS011;56792;50.644;17.984;2023-07-28T07:08:47;5.40;;;3.00;;
69588;SDS011;56792;50.644;17.984;2023-07-28T07:11:15;5.90;;;2.70;;
69588;SDS011;56792;50.644;17.984;2023-07-28T07:13:44;6.20;;;3.20;;
69588;SDS011;56792;50.644;17.984;2023-07-28T07:16:15;5.80;;;3.20;;
69588;SDS011;56792;50.644;17.984;2023-07-28T07:18:44;6.00;;;3.40;;
69588;SDS011;56792;50.644;17.984;2023-07-28T07:21:12;6.80;;;2.90;;
69588;SDS011;56792;50.644;17.984;2023-07-28T07:23:40;5.20;;;2.80;;
69588;SDS011;56792;50.644;17.984;2023-07-28T07:26:25;5.80;;;3.10;;
69588;SDS011;56792;50.644;17.984;2023-07-28T07:28:54;7.00;;;3.90;;
69588;SDS011;56792;50.644;17.984;2023-07-28T07:31:23;6.60;;;3.60;;
69588;SDS011;56792;50.644;17.984;2023-07-28T07:33:51;5.60;;;2.90;;
69588;SDS011;56792;50.644;17.984;2023-07-28T07:36:20;4.10;;;2.60;;
69588;SDS011;56792;50.644;17.984;2023-07-28T07:38:48;3.70;;;2.20;;
69588;SDS011;56792;50.644;17.984;2023-07-28T07:41:17;5.30;;;2.50;;
69588;SDS011;56792;50.644;17.984;2023-07-28T07:43:47;5.40;;;2.70;;
69588;SDS011;56792;50.644;17.984;2023-07-28T07:46:16;4.80;;;2.80;;
69588;SDS011;56792;50.644;17.984;2023-07-28T07:48:46;4.70;;;2.90;;
69588;SDS011;56792;50.644;17.984;2023-07-28T07:51:15;5.10;;;2.60;;
69588;SDS011;56792;50.644;17.984;2023-07-28T07:53:44;3.90;;;2.60;;
69588;SDS011;56792;50.644;17.984;2023-07-28T07:56:12;5.30;;;3.80;;
69588;SDS011;56792;50.644;17.984;2023-07-28T07:58:42;6.00;;;3.80;;
69588;SDS011;56792;50.644;17.984;2023-07-28T08:01:10;5.20;;;3.60;;
69588;SDS011;56792;50.644;17.984;2023-07-28T08:03:39;5.40;;;4.10;;
69588;SDS011;56792;50.644;17.984;2023-07-28T08:06:07;7.50;;;4.00;;
69588;SDS011;56792;50.644;17.984;2023-07-28T08:08:38;7.00;;;3.70;;
69588;SDS011;56792;50.644;17.984;2023-07-28T08:11:07;6.40;;;3.60;;
69588;SDS011;56792;50.644;17.984;2023-07-28T08:13:35;7.50;;;4.10;;
69588;SDS011;56792;50.644;17.984;2023-07-28T08:16:04;7.10;;;4.50;;
69588;SDS011;56792;50.644;17.984;2023-07-28T08:18:33;6.20;;;4.10;;
69588;SDS011;56792;50.644;17.984;2023-07-28T08:21:01;5.80;;;3.60;;
69588;SDS011;56792;50.644;17.984;2023-07-28T08:23:29;7.60;;;4.50;;
69588;SDS011;56792;50.644;17.984;2023-07-28T08:25:58;6.70;;;3.30;;
69588;SDS011;56792;50.644;17.984;2023-07-28T08:28:26;7.80;;;3.90;;
69588;SDS011;56792;50.644;17.984;2023-07-28T08:30:55;6.60;;;3.50;;
69588;SDS011;56792;50.644;17.984;2023-07-28T08:33:24;5.90;;;3.50;;
69588;SDS011;56792;50.644;17.984;2023-07-28T08:35:53;5.20;;;3.10;;
69588;SDS011;56792;50.644;17.984;2023-07-28T08:38:22;5.00;;;2.80;;
69588;SDS011;56792;50.644;17.984;2023-07-28T08:40:50;5.10;;;2.70;;
69588;SDS011;56792;50.644;17.984;2023-07-28T08:43:19;5.20;;;2.40;;
69588;SDS011;56792;50.644;17.984;2023-07-28T08:45:47;3.40;;;2.30;;
69588;SDS011;56792;50.644;17.984;2023-07-28T08:48:15;5.40;;;2.50;;
69588;SDS011;56792;50.644;17.984;2023-07-28T08:50:44;4.00;;;2.30;;
69588;SDS011;56792;50.644;17.984;2023-07-28T08:53:13;3.90;;;2.10;;
69588;SDS011;56792;50.644;17.984;2023-07-28T08:55:42;5.20;;;2.50;;
69588;SDS011;56792;50.644;17.984;2023-07-28T08:58:18;3.30;;;1.90;;
69588;SDS011;56792;50.644;17.984;2023-07-28T09:00:49;3.80;;;2.30;;
69588;SDS011;56792;50.644;17.984;2023-07-28T09:03:20;5.40;;;2.30;;
69588;SDS011;56792;50.644;17.984;2023-07-28T09:05:49;4.10;;;2.30;;
69588;SDS011;56792;50.644;17.984;2023-07-28T09:08:18;5.80;;;2.70;;
69588;SDS011;56792;50.644;17.984;2023-07-28T09:10:48;5.70;;;2.10;;
69588;SDS011;56792;50.644;17.984;2023-07-28T09:13:17;4.50;;;2.20;;
69588;SDS011;56792;50.644;17.984;2023-07-28T09:15:47;3.60;;;2.10;;
69588;SDS011;56792;50.644;17.984;2023-07-28T09:18:17;4.30;;;2.30;;
69588;SDS011;56792;50.644;17.984;2023-07-28T09:20:45;3.10;;;1.90;;
69588;SDS011;56792;50.644;17.984;2023-07-28T09:23:14;3.70;;;1.70;;
69588;SDS011;56792;50.644;17.984;2023-07-28T09:25:43;4.20;;;2.00;;
69588;SDS011;56792;50.644;17.984;2023-07-28T09:28:12;4.20;;;2.20;;
69588;SDS011;56792;50.644;17.984;2023-07-28T09:30:46;3.60;;;2.00;;
69588;SDS011;56792;50.644;17.984;2023-07-28T09:33:30;3.70;;;2.10;;
69588;SDS011;56792;50.644;17.984;2023-07-28T09:36:08;4.30;;;1.80;;
69588;SDS011;56792;50.644;17.984;2023-07-28T09:38:38;3.20;;;1.70;;
69588;SDS011;56792;50.644;17.984;2023-07-28T09:41:09;3.20;;;1.70;;
69588;SDS011;56792;50.644;17.984;2023-07-28T09:43:39;3.50;;;1.70;;
69588;SDS011;56792;50.644;17.984;2023-07-28T09:46:10;4.20;;;1.90;;
69588;SDS011;56792;50.644;17.984;2023-07-28T09:48:43;4.20;;;1.80;;
69588;SDS011;56792;50.644;17.984;2023-07-28T09:51:18;3.50;;;1.80;;
69588;SDS011;56792;50.644;17.984;2023-07-28T09:53:52;3.40;;;2.00;;
69588;SDS011;56792;50.644;17.984;2023-07-28T09:56:27;4.00;;;2.00;;
69588;SDS011;56792;50.644;17.984;2023-07-28T09:58:57;3.10;;;1.80;;
69588;SDS011;56792;50.644;17.984;2023-07-28T10:01:30;3.80;;;1.80;;
69588;SDS011;56792;50.644;17.984;2023-07-28T10:04:00;4.40;;;2.00;;
69588;SDS011;56792;50.644;17.984;2023-07-28T10:06:29;3.00;;;1.80;;
69588;SDS011;56792;50.644;17.984;2023-07-28T10:09:00;3.90;;;1.60;;
69588;SDS011;56792;50.644;17.984;2023-07-28T10:11:29;3.60;;;1.90;;
69588;SDS011;56792;50.644;17.984;2023-07-28T10:13:58;3.50;;;1.60;;
69588;SDS011;56792;50.644;17.984;2023-07-28T10:16:38;3.50;;;2.20;;
69588;SDS011;56792;50.644;17.984;2023-07-28T10:19:07;3.20;;;1.90;;
69588;SDS011;56792;50.644;17.984;2023-07-28T10:21:40;4.00;;;2.10;;
69588;SDS011;56792;50.644;17.984;2023-07-28T10:24:09;3.30;;;2.00;;
69588;SDS011;56792;50.644;17.984;2023-07-28T10:26:38;4.00;;;2.50;;
69588;SDS011;56792;50.644;17.984;2023-07-28T10:29:12;3.70;;;2.40;;
69588;SDS011;56792;50.644;17.984;2023-07-28T10:31:51;3.40;;;2.60;;
69588;SDS011;56792;50.644;17.984;2023-07-28T10:34:22;4.80;;;2.40;;
69588;SDS011;56792;50.644;17.984;2023-07-28T10:36:57;4.70;;;2.80;;
69588;SDS011;56792;50.644;17.984;2023-07-28T10:39:26;3.90;;;2.70;;
69588;SDS011;56792;50.644;17.984;2023-07-28T10:42:03;3.70;;;2.70;;
69588;SDS011;56792;50.644;17.984;2023-07-28T10:44:33;4.30;;;3.00;;
69588;SDS011;56792;50.644;17.984;2023-07-28T10:47:04;4.10;;;3.10;;
69588;SDS011;56792;50.644;17.984;2023-07-28T10:49:35;3.70;;;2.60;;
69588;SDS011;56792;50.644;17.984;2023-07-28T10:52:04;3.80;;;2.70;;
69588;SDS011;56792;50.644;17.984;2023-07-28T10:54:33;4.00;;;2.40;;
69588;SDS011;56792;50.644;17.984;2023-07-28T10:57:03;3.70;;;2.60;;
69588;SDS011;56792;50.644;17.984;2023-07-28T10:59:32;3.20;;;2.30;;
69588;SDS011;56792;50.644;17.984;2023-07-28T11:02:02;3.40;;;2.40;;
69588;SDS011;56792;50.644;17.984;2023-07-28T11:04:30;3.00;;;2.20;;
69588;SDS011;56792;50.644;17.984;2023-07-28T11:06:59;3.20;;;2.30;;
69588;SDS011;56792;50.644;17.984;2023-07-28T11:09:28;6.20;;;2.20;;
69588;SDS011;56792;50.644;17.984;2023-07-28T11:11:56;3.60;;;2.10;;
69588;SDS011;56792;50.644;17.984;2023-07-28T11:14:25;3.20;;;1.80;;
69588;SDS011;56792;50.644;17.984;2023-07-28T11:16:54;3.20;;;2.20;;
69588;SDS011;56792;50.644;17.984;2023-07-28T11:19:22;3.30;;;2.10;;
69588;SDS011;56792;50.644;17.984;2023-07-28T11:21:51;3.20;;;2.40;;
69588;SDS011;56792;50.644;17.984;2023-07-28T11:24:20;3.10;;;2.00;;
69588;SDS011;56792;50.644;17.984;2023-07-28T11:26:50;3.20;;;2.00;;
69588;SDS011;56792;50.644;17.984;2023-07-28T11:29:19;3.70;;;2.30;;
69588;SDS011;56792;50.644;17.984;2023-07-28T11:31:49;3.90;;;2.10;;
69588;SDS011;56792;50.644;17.984;2023-07-28T11:34:18;3.20;;;2.10;;
69588;SDS011;56792;50.644;17.984;2023-07-28T11:36:47;3.80;;;2.10;;
69588;SDS011;56792;50.644;17.984;2023-07-28T11:39:16;3.30;;;2.10;;
69588;SDS011;56792;50.644;17.984;2023-07-28T11:41:46;3.20;;;2.20;;
69588;SDS011;56792;50.644;17.984;2023-07-28T11:44:16;3.50;;;2.10;;
69588;SDS011;56792;50.644;17.984;2023-07-28T11:46:44;3.30;;;2.00;;
69588;SDS011;56792;50.644;17.984;2023-07-28T11:49:14;4.10;;;2.20;;
69588;SDS011;56792;50.644;17.984;2023-07-28T11:51:48;2.60;;;1.70;;
69588;SDS011;56792;50.644;17.984;2023-07-28T11:54:20;3.00;;;1.80;;
69588;SDS011;56792;50.644;17.984;2023-07-28T11:56:51;3.00;;;2.00;;
69588;SDS011;56792;50.644;17.984;2023-07-28T11:59:23;3.90;;;2.50;;
69588;SDS011;56792;50.644;17.984;2023-07-28T12:01:56;3.10;;;1.90;;
69588;SDS011;56792;50.644;17.984;2023-07-28T12:04:26;4.20;;;1.80;;
69588;SDS011;56792;50.644;17.984;2023-07-28T12:07:06;2.50;;;1.50;;
69588;SDS011;56792;50.644;17.984;2023-07-28T12:09:49;3.80;;;2.00;;
69588;SDS011;56792;50.644;17.984;2023-07-28T12:12:19;3.00;;;2.20;;
69588;SDS011;56792;50.644;17.984;2023-07-28T12:14:50;3.20;;;1.90;;
69588;SDS011;56792;50.644;17.984;2023-07-28T12:17:20;3.40;;;2.00;;
69588;SDS011;56792;50.644;17.984;2023-07-28T12:19:58;4.40;;;2.00;;
69588;SDS011;56792;50.644;17.984;2023-07-28T12:22:28;3.70;;;2.20;;
69588;SDS011;56792;50.644;17.984;2023-07-28T12:24:57;3.00;;;2.10;;
69588;SDS011;56792;50.644;17.984;2023-07-28T12:27:25;3.50;;;2.00;;
69588;SDS011;56792;50.644;17.984;2023-07-28T12:29:54;3.40;;;2.30;;
69588;SDS011;56792;50.644;17.984;2023-07-28T12:32:22;3.40;;;2.10;;
69588;SDS011;56792;50.644;17.984;2023-07-28T12:34:51;3.20;;;1.60;;
69588;SDS011;56792;50.644;17.984;2023-07-28T12:37:20;2.80;;;1.80;;
69588;SDS011;56792;50.644;17.984;2023-07-28T12:39:48;3.40;;;1.50;;
69588;SDS011;56792;50.644;17.984;2023-07-28T12:42:17;2.90;;;1.90;;
69588;SDS011;56792;50.644;17.984;2023-07-28T12:44:47;3.90;;;2.50;;
69588;SDS011;56792;50.644;17.984;2023-07-28T12:47:15;3.10;;;2.30;;
69588;SDS011;56792;50.644;17.984;2023-07-28T12:49:44;4.50;;;2.40;;
69588;SDS011;56792;50.644;17.984;2023-07-28T12:52:12;3.50;;;2.30;;
69588;SDS011;56792;50.644;17.984;2023-07-28T12:54:42;2.80;;;2.30;;
69588;SDS011;56792;50.644;17.984;2023-07-28T12:57:11;3.50;;;2.10;;
69588;SDS011;56792;50.644;17.984;2023-07-28T12:59:39;3.00;;;2.30;;
69588;SDS011;56792;50.644;17.984;2023-07-28T13:02:07;2.90;;;2.20;;
69588;SDS011;56792;50.644;17.984;2023-07-28T13:04:36;3.60;;;2.10;;
69588;SDS011;56792;50.644;17.984;2023-07-28T13:07:05;3.60;;;2.40;;
69588;SDS011;56792;50.644;17.984;2023-07-28T13:09:33;3.80;;;2.30;;
69588;SDS011;56792;50.644;17.984;2023-07-28T13:12:02;3.30;;;2.30;;
69588;SDS011;56792;50.644;17.984;2023-07-28T13:14:31;3.60;;;3.00;;
69588;SDS011;56792;50.644;17.984;2023-07-28T13:16:59;3.10;;;2.40;;
69588;SDS011;56792;50.644;17.984;2023-07-28T13:19:28;3.40;;;1.90;;
69588;SDS011;56792;50.644;17.984;2023-07-28T13:21:56;3.10;;;2.40;;
69588;SDS011;56792;50.644;17.984;2023-07-28T13:24:24;3.00;;;2.50;;
69588;SDS011;56792;50.644;17.984;2023-07-28T13:26:52;3.70;;;2.20;;
69588;SDS011;56792;50.644;17.984;2023-07-28T13:29:21;4.00;;;2.40;;
69588;SDS011;56792;50.644;17.984;2023-07-28T13:31:49;3.30;;;2.40;;
69588;SDS011;56792;50.644;17.984;2023-07-28T13:34:17;3.20;;;2.40;;
69588;SDS011;56792;50.644;17.984;2023-07-28T13:36:46;3.40;;;2.30;;
69588;SDS011;56792;50.644;17.984;2023-07-28T13:39:14;3.30;;;2.40;;
69588;SDS011;56792;50.644;17.984;2023-07-28T13:41:42;3.10;;;2.50;;
69588;SDS011;56792;50.644;17.984;2023-07-28T13:44:11;3.30;;;1.90;;
69588;SDS011;56792;50.644;17.984;2023-07-28T13:46:39;3.40;;;2.00;;
69588;SDS011;56792;50.644;17.984;2023-07-28T13:49:08;3.20;;;2.00;;
69588;SDS011;56792;50.644;17.984;2023-07-28T13:51:36;3.80;;;1.90;;
69588;SDS011;56792;50.644;17.984;2023-07-28T13:54:05;3.70;;;2.10;;
69588;SDS011;56792;50.644;17.984;2023-07-28T13:56:33;2.90;;;2.10;;
69588;SDS011;56792;50.644;17.984;2023-07-28T13:59:02;3.00;;;1.90;;
69588;SDS011;56792;50.644;17.984;2023-07-28T14:01:30;3.50;;;2.10;;
69588;SDS011;56792;50.644;17.984;2023-07-28T14:03:59;4.40;;;1.80;;
69588;SDS011;56792;50.644;17.984;2023-07-28T14:06:27;3.50;;;1.90;;
69588;SDS011;56792;50.644;17.984;2023-07-28T14:08:55;3.70;;;1.80;;
69588;SDS011;56792;50.644;17.984;2023-07-28T14:11:24;3.10;;;1.90;;
69588;SDS011;56792;50.644;17.984;2023-07-28T14:13:52;3.50;;;2.10;;
69588;SDS011;56792;50.644;17.984;2023-07-28T14:16:20;2.80;;;1.80;;
69588;SDS011;56792;50.644;17.984;2023-07-28T14:18:49;3.40;;;1.80;;
69588;SDS011;56792;50.644;17.984;2023-07-28T14:21:17;3.80;;;2.20;;
69588;SDS011;56792;50.644;17.984;2023-07-28T14:23:45;3.00;;;1.30;;
69588;SDS011;56792;50.644;17.984;2023-07-28T14:26:14;3.10;;;1.40;;
69588;SDS011;56792;50.644;17.984;2023-07-28T14:28:43;3.90;;;1.40;;
69588;SDS011;56792;50.644;17.984;2023-07-28T14:31:11;3.80;;;1.50;;
69588;SDS011;56792;50.644;17.984;2023-07-28T14:33:40;5.20;;;1.80;;
69588;SDS011;56792;50.644;17.984;2023-07-28T14:36:08;4.40;;;1.60;;
69588;SDS011;56792;50.644;17.984;2023-07-28T14:38:36;5.10;;;1.80;;
69588;SDS011;56792;50.644;17.984;2023-07-28T14:41:05;4.00;;;1.70;;
69588;SDS011;56792;50.644;17.984;2023-07-28T14:43:34;3.50;;;1.40;;
69588;SDS011;56792;50.644;17.984;2023-07-28T14:46:02;2.90;;;1.30;;
69588;SDS011;56792;50.644;17.984;2023-07-28T14:48:30;3.70;;;1.20;;